createdAt,value
2022-10-11T00:00:07.509Z,5.95
2022-10-11T00:02:34.040Z,6.43
2022-10-11T00:05:00.614Z,5.88
2022-10-11T00:07:27.175Z,7.10
2022-10-11T00:09:54.005Z,5.88
2022-10-11T00:12:20.815Z,5.93
2022-10-11T00:14:47.369Z,6.40
2022-10-11T00:17:14.525Z,6.55
2022-10-11T00:19:41.094Z,6.10
2022-10-11T00:22:07.678Z,5.78
2022-10-11T00:24:34.249Z,5.40
2022-10-11T00:27:00.858Z,5.03
2022-10-11T00:29:27.393Z,5.20
2022-10-11T00:31:53.901Z,5.22
2022-10-11T00:34:20.503Z,5.57
2022-10-11T00:36:47.086Z,5.18
2022-10-11T00:39:14.522Z,5.22
2022-10-11T00:41:41.345Z,5.13
2022-10-11T00:44:12.835Z,5.95
2022-10-11T00:46:42.564Z,4.38
2022-10-11T00:49:25.318Z,4.85
2022-10-11T00:52:22.774Z,5.05
2022-10-11T00:54:50.072Z,4.63
2022-10-11T00:57:23.908Z,4.97
2022-10-11T00:59:54.319Z,4.72
2022-10-11T01:02:23.119Z,4.72
2022-10-11T01:05:05.601Z,4.78
2022-10-11T01:07:38.724Z,5.05
2022-10-11T01:10:05.723Z,4.28
2022-10-11T01:12:32.641Z,4.95
2022-10-11T01:15:05.508Z,5.07
2022-10-11T01:18:12.700Z,5.93
2022-10-11T01:21:00.514Z,5.47
2022-10-11T01:23:57.973Z,7.00
2022-10-11T01:26:33.311Z,7.65
2022-10-11T01:29:18.097Z,7.25
2022-10-11T01:32:02.631Z,6.53
2022-10-11T01:35:01.684Z,7.53
2022-10-11T01:37:41.112Z,7.80
2022-10-11T01:40:11.270Z,8.68
2022-10-11T01:42:39.911Z,8.83
2022-10-11T01:45:13.997Z,8.52
2022-10-11T01:47:42.408Z,7.80
2022-10-11T01:50:31.587Z,9.40
2022-10-11T01:53:04.286Z,9.25
2022-10-11T01:55:50.030Z,9.27
2022-10-11T01:58:45.838Z,9.20
2022-10-11T02:01:18.054Z,9.48
2022-10-11T02:04:25.592Z,8.85
2022-10-11T02:07:08.172Z,9.82
2022-10-11T02:10:03.416Z,9.90
2022-10-11T02:12:40.768Z,9.52
2022-10-11T02:15:11.580Z,10.68
2022-10-11T02:17:43.430Z,10.00
2022-10-11T02:20:16.247Z,10.57
2022-10-11T02:22:45.875Z,9.43
2022-10-11T02:25:20.292Z,10.05
2022-10-11T02:27:48.777Z,9.55
2022-10-11T02:30:16.064Z,9.13
2022-10-11T02:32:46.453Z,9.77
2022-10-11T02:35:13.933Z,8.80
2022-10-11T02:37:49.290Z,8.60
2022-10-11T02:40:22.844Z,8.15
2022-10-11T02:43:01.267Z,8.77
2022-10-11T02:45:36.786Z,7.20
2022-10-11T02:48:05.078Z,6.45
2022-10-11T02:50:31.657Z,6.70
2022-10-11T02:52:58.213Z,6.05
2022-10-11T02:55:24.738Z,5.35
2022-10-11T02:57:51.302Z,5.13
2022-10-11T03:00:17.858Z,4.68
2022-10-11T03:02:44.408Z,5.20
2022-10-11T03:05:10.934Z,4.60
2022-10-11T03:07:37.518Z,4.68
2022-10-11T03:10:05.108Z,4.60
2022-10-11T03:12:32.130Z,4.57
2022-10-11T03:14:58.769Z,4.32
2022-10-11T03:17:36.213Z,4.30
2022-10-11T03:20:04.760Z,4.25
2022-10-11T03:22:31.279Z,4.22
2022-10-11T03:25:03.397Z,4.05
2022-10-11T03:27:31.027Z,4.00
2022-10-11T03:29:57.854Z,4.07
2022-10-11T03:32:24.939Z,3.45
2022-10-11T03:34:51.501Z,4.13
2022-10-11T03:37:18.276Z,3.25
2022-10-11T03:39:45.775Z,3.88
2022-10-11T03:42:13.685Z,4.10
2022-10-11T03:44:41.682Z,3.78
2022-10-11T03:47:08.473Z,3.60
2022-10-11T03:49:37.710Z,3.53
2022-10-11T03:52:07.862Z,3.60
2022-10-11T03:54:34.387Z,3.30
2022-10-11T03:57:00.954Z,3.95
2022-10-11T03:59:27.475Z,3.20
2022-10-11T04:01:54.209Z,3.22
2022-10-11T04:04:20.851Z,3.83
2022-10-11T04:06:47.368Z,3.15
2022-10-11T04:09:13.905Z,2.97
2022-10-11T04:11:40.487Z,2.78
2022-10-11T04:14:07.021Z,3.10
2022-10-11T04:16:34.110Z,3.33
2022-10-11T04:19:00.960Z,2.65
2022-10-11T04:21:27.493Z,2.88
2022-10-11T04:23:54.807Z,2.58
2022-10-11T04:26:21.441Z,3.05
2022-10-11T04:28:48.094Z,3.33
2022-10-11T04:31:14.849Z,3.00
2022-10-11T04:33:41.447Z,3.03
2022-10-11T04:36:08.638Z,2.95
2022-10-11T04:38:35.436Z,2.83
2022-10-11T04:41:09.579Z,3.63
2022-10-11T04:43:36.684Z,2.85
2022-10-11T04:46:04.578Z,2.65
2022-10-11T04:48:31.511Z,3.13
2022-10-11T04:50:58.109Z,3.45
2022-10-11T04:53:24.938Z,3.22
2022-10-11T04:56:01.076Z,3.45
2022-10-11T04:58:28.934Z,2.92
2022-10-11T05:00:56.020Z,2.80
2022-10-11T05:03:22.667Z,2.90
2022-10-11T05:05:49.490Z,2.85
2022-10-11T05:08:16.397Z,2.60
2022-10-11T05:10:43.213Z,3.08
2022-10-11T05:13:09.751Z,2.75
2022-10-11T05:15:36.272Z,2.78
2022-10-11T05:18:02.925Z,3.63
2022-10-11T05:20:29.499Z,3.70
2022-10-11T05:22:56.146Z,3.55
2022-10-11T05:25:22.709Z,4.13
2022-10-11T05:27:49.225Z,3.50
2022-10-11T05:30:16.014Z,3.83
2022-10-11T05:32:42.540Z,3.88
2022-10-11T05:35:09.309Z,3.83
2022-10-11T05:37:35.843Z,3.75
2022-10-11T05:40:02.444Z,2.83
2022-10-11T05:42:29.018Z,2.53
2022-10-11T05:44:55.557Z,3.00
2022-10-11T05:47:22.121Z,2.28
2022-10-11T05:49:48.682Z,2.05
2022-10-11T05:52:19.770Z,1.77
2022-10-11T05:57:13.461Z,2.40
2022-10-11T05:59:40.010Z,1.88
2022-10-11T06:02:07.448Z,1.90
2022-10-11T06:04:37.450Z,2.67
2022-10-11T06:07:04.338Z,2.20
2022-10-11T06:09:31.232Z,1.50
2022-10-11T06:11:57.943Z,1.92
2022-10-11T06:14:24.485Z,1.80
2022-10-11T06:16:51.243Z,1.83
2022-10-11T06:19:17.837Z,1.73
2022-10-11T06:21:45.804Z,1.00
2022-10-11T06:24:13.093Z,1.90
2022-10-11T06:26:39.674Z,1.35
2022-10-11T06:29:06.304Z,2.15
2022-10-11T06:31:33.151Z,1.65
2022-10-11T06:33:59.910Z,1.20
2022-10-11T06:36:26.784Z,1.38
2022-10-11T06:38:55.031Z,1.80
2022-10-11T06:41:26.996Z,1.75
2022-10-11T06:43:54.020Z,1.35
2022-10-11T06:46:23.129Z,1.25
2022-10-11T06:48:50.317Z,1.50
2022-10-11T06:51:20.133Z,1.45
2022-10-11T06:53:55.855Z,1.75
2022-10-11T06:56:22.855Z,1.60
2022-10-11T06:58:51.013Z,1.50
2022-10-11T07:01:20.125Z,1.48
2022-10-11T07:03:47.390Z,1.88
2022-10-11T07:06:16.959Z,1.65
2022-10-11T07:08:43.526Z,1.58
2022-10-11T07:11:12.322Z,2.10
2022-10-11T07:13:39.918Z,2.05
2022-10-11T07:16:09.904Z,1.70
2022-10-11T07:18:36.775Z,2.08
2022-10-11T07:21:05.734Z,1.65
2022-10-11T07:23:32.547Z,1.60
2022-10-11T07:25:59.367Z,2.08
2022-10-11T07:28:26.894Z,1.63
2022-10-11T07:30:53.542Z,1.92
2022-10-11T07:33:20.107Z,1.67
2022-10-11T07:35:48.566Z,1.45
2022-10-11T07:38:15.790Z,2.00
2022-10-11T07:40:44.376Z,1.65
2022-10-11T07:43:12.195Z,2.25
2022-10-11T07:45:45.125Z,1.90
2022-10-11T07:48:11.772Z,1.70
2022-10-11T07:50:38.333Z,2.22
2022-10-11T07:53:05.083Z,1.65
2022-10-11T07:55:40.044Z,1.92
2022-10-11T07:58:11.775Z,1.67
2022-10-11T08:00:39.373Z,1.90
2022-10-11T08:03:06.508Z,2.08
2022-10-11T08:05:34.734Z,2.03
2022-10-11T08:08:01.254Z,2.05
2022-10-11T08:10:28.048Z,2.00
2022-10-11T08:12:54.773Z,1.83
2022-10-11T08:15:21.724Z,1.95
2022-10-11T08:17:48.589Z,2.17
2022-10-11T08:20:15.224Z,2.55
2022-10-11T08:22:42.018Z,2.17
2022-10-11T08:25:08.699Z,2.58
2022-10-11T08:27:35.255Z,1.90
2022-10-11T08:30:01.828Z,2.70
2022-10-11T08:32:29.758Z,2.35
2022-10-11T08:34:56.442Z,2.40
2022-10-11T08:37:22.968Z,2.17
2022-10-11T08:39:49.775Z,2.08
2022-10-11T08:42:30.674Z,1.80
2022-10-11T08:45:11.142Z,1.73
2022-10-11T08:47:42.779Z,2.20
2022-10-11T08:52:56.768Z,2.05
2022-10-11T08:57:57.408Z,1.85
2022-10-11T09:00:26.294Z,2.22
2022-10-11T09:03:11.698Z,1.48
2022-10-11T09:06:04.238Z,1.58
2022-10-11T09:08:42.957Z,1.48
2022-10-11T09:11:50.324Z,1.65
2022-10-11T09:14:39.953Z,1.35
2022-10-11T09:17:54.420Z,1.98
2022-10-11T09:20:24.186Z,1.65
2022-10-11T09:23:13.131Z,1.67
2022-10-11T09:26:12.060Z,1.48
2022-10-11T09:28:41.622Z,1.48
2022-10-11T09:31:10.921Z,1.58
2022-10-11T09:33:46.900Z,1.90
2022-10-11T09:36:37.353Z,2.17
2022-10-11T09:39:25.478Z,2.05
2022-10-11T09:42:11.570Z,1.70
2022-10-11T09:44:57.474Z,2.03
2022-10-11T09:47:27.227Z,2.08
2022-10-11T09:49:58.157Z,1.20
2022-10-11T09:52:26.070Z,1.50
2022-10-11T09:55:00.779Z,2.08
2022-10-11T09:57:32.125Z,1.83
2022-10-11T10:00:22.148Z,1.83
2022-10-11T10:03:10.358Z,1.90
2022-10-11T10:05:38.535Z,1.60
2022-10-11T10:08:22.630Z,2.88
2022-10-11T10:10:59.957Z,2.30
2022-10-11T10:13:41.747Z,2.15
2022-10-11T10:16:20.214Z,1.95
2022-10-11T10:19:24.088Z,2.00
2022-10-11T10:21:53.564Z,1.80
2022-10-11T10:24:42.517Z,1.58
2022-10-11T10:27:17.774Z,2.53
2022-10-11T10:30:10.149Z,1.20
2022-10-11T10:32:52.218Z,1.65
2022-10-11T10:35:37.015Z,1.52
2022-10-11T10:38:32.667Z,1.63
2022-10-11T10:41:04.202Z,1.48
2022-10-11T10:43:36.743Z,1.75
2022-10-11T10:46:18.011Z,2.05
2022-10-11T10:49:19.124Z,1.75
2022-10-11T10:52:24.699Z,1.67
2022-10-11T10:55:03.319Z,1.70
2022-10-11T10:57:54.292Z,1.83
2022-10-11T11:00:22.839Z,1.60
2022-10-11T11:03:20.342Z,2.05
2022-10-11T11:05:55.958Z,1.83
2022-10-11T11:08:22.438Z,1.77
2022-10-11T11:11:01.902Z,1.52
2022-10-11T11:13:43.685Z,1.55
2022-10-11T11:16:19.323Z,1.42
2022-10-11T11:19:24.151Z,1.33
2022-10-11T11:22:12.142Z,1.77
2022-10-11T11:25:12.411Z,1.55
2022-10-11T11:28:22.237Z,1.92
2022-10-11T11:31:21.007Z,1.38
2022-10-11T11:34:09.395Z,1.90
2022-10-11T11:36:46.156Z,1.63
2022-10-11T11:39:35.306Z,2.00
2022-10-11T11:42:10.279Z,2.13
2022-10-11T11:44:48.139Z,1.90
2022-10-11T11:47:19.062Z,1.65
2022-10-11T11:49:50.042Z,1.80
2022-10-11T11:52:34.627Z,1.55
2022-10-11T11:55:25.975Z,1.70
2022-10-11T11:58:07.320Z,2.20
2022-10-11T12:00:48.273Z,1.63
2022-10-11T12:03:23.934Z,1.50
2022-10-11T12:06:12.258Z,1.50
2022-10-11T12:08:45.878Z,2.70
2022-10-11T12:11:28.578Z,1.85
2022-10-11T12:13:59.683Z,1.50
2022-10-11T12:16:27.191Z,1.65
2022-10-11T12:18:56.713Z,1.98
2022-10-11T12:21:37.771Z,1.38
2022-10-11T12:26:55.762Z,1.60
2022-10-11T12:29:45.018Z,1.65
2022-10-11T12:32:33.981Z,1.98
2022-10-11T12:35:31.779Z,1.50
2022-10-11T12:38:17.836Z,2.78
2022-10-11T12:40:47.210Z,1.60
2022-10-11T12:43:19.940Z,1.80
2022-10-11T12:45:48.108Z,2.05
2022-10-11T12:48:35.920Z,2.20
2022-10-11T12:51:15.666Z,1.80
2022-10-11T12:54:26.824Z,1.55
2022-10-11T12:57:14.164Z,1.65
2022-10-11T12:59:45.057Z,1.98
2022-10-11T13:05:18.666Z,1.98
2022-10-11T13:07:46.521Z,2.50
2022-10-11T13:10:21.495Z,2.20
2022-10-11T13:12:49.045Z,1.38
2022-10-11T13:15:19.395Z,1.70
2022-10-11T13:17:48.673Z,1.70
2022-10-11T13:20:26.055Z,1.80
2022-10-11T13:22:55.559Z,1.67
2022-10-11T13:25:29.911Z,1.70
2022-10-11T13:27:59.510Z,1.50
2022-10-11T13:30:31.527Z,1.90
2022-10-11T13:32:59.510Z,1.52
2022-10-11T13:35:34.479Z,1.60
2022-10-11T13:38:02.439Z,1.80
2022-10-11T13:40:30.028Z,1.70
2022-10-11T13:42:57.430Z,1.60
2022-10-11T13:45:26.644Z,2.00
2022-10-11T13:47:55.039Z,1.70
2022-10-11T13:50:33.649Z,1.80
2022-10-11T13:53:24.287Z,1.75
2022-10-11T13:55:54.424Z,1.73
2022-10-11T13:58:28.614Z,1.80
2022-10-11T14:00:58.491Z,1.60
2022-10-11T14:03:37.475Z,1.90
2022-10-11T14:06:04.875Z,1.67
2022-10-11T14:08:38.088Z,1.50
2022-10-11T14:11:07.031Z,1.40
2022-10-11T14:13:38.670Z,1.55
2022-10-11T14:16:05.595Z,1.63
2022-10-11T14:18:47.067Z,1.60
2022-10-11T14:21:19.775Z,1.80
2022-10-11T14:23:55.933Z,2.33
2022-10-11T14:26:24.229Z,2.25
2022-10-11T14:28:56.614Z,2.35
2022-10-11T14:31:23.835Z,1.98
2022-10-11T14:33:50.492Z,2.15
2022-10-11T14:36:17.068Z,1.75
2022-10-11T14:38:43.618Z,2.05
2022-10-11T14:41:10.246Z,2.40
2022-10-11T14:43:36.847Z,1.50
2022-10-11T14:46:03.619Z,1.70
2022-10-11T14:48:53.583Z,1.35
2022-10-11T14:51:22.163Z,1.33
2022-10-11T14:53:49.467Z,1.75
2022-10-11T14:56:21.345Z,1.42
2022-10-11T14:58:48.521Z,1.55
2022-10-11T15:01:17.007Z,1.73
2022-10-11T15:03:43.815Z,1.67
2022-10-11T15:06:22.977Z,1.58
2022-10-11T15:08:49.529Z,1.67
2022-10-11T15:11:20.935Z,1.50
2022-10-11T15:13:48.200Z,1.65
2022-10-11T15:16:17.467Z,1.67
2022-10-11T15:18:44.172Z,1.90
2022-10-11T15:21:14.677Z,1.88
2022-10-11T15:23:41.213Z,1.40
2022-10-11T15:26:13.349Z,1.67
2022-10-11T15:28:40.015Z,1.40
2022-10-11T15:31:06.610Z,1.40
2022-10-11T15:33:33.182Z,1.40
2022-10-11T15:35:59.904Z,1.75
2022-10-11T15:38:26.892Z,1.27
2022-10-11T15:40:54.079Z,1.60
2022-10-11T15:43:24.767Z,2.17
2022-10-11T15:45:52.393Z,1.50
2022-10-11T15:48:21.855Z,1.27
2022-10-11T15:50:50.052Z,1.35
2022-10-11T15:53:19.165Z,1.90
2022-10-11T15:55:50.899Z,1.60
2022-10-11T15:58:49.966Z,2.10
2022-10-11T16:01:19.761Z,1.65
2022-10-11T16:03:47.931Z,1.45
2022-10-11T16:06:15.171Z,1.70
2022-10-11T16:08:41.785Z,4.32
2022-10-11T16:11:09.327Z,3.20
2022-10-11T16:13:36.142Z,2.10
2022-10-11T16:16:05.749Z,2.42
2022-10-11T16:18:35.717Z,2.55
2022-10-11T16:21:06.983Z,2.00
2022-10-11T16:23:33.927Z,1.90
2022-10-11T16:26:04.208Z,1.73
2022-10-11T16:28:31.862Z,2.00
2022-10-11T16:30:58.504Z,1.63
2022-10-11T16:33:25.372Z,1.85
2022-10-11T16:35:51.997Z,1.90
2022-10-11T16:38:18.594Z,1.40
2022-10-11T16:40:45.137Z,2.63
2022-10-11T16:43:11.768Z,1.92
2022-10-11T16:45:38.417Z,1.30
2022-10-11T16:48:05.574Z,1.90
2022-10-11T16:50:36.810Z,1.85
2022-10-11T16:53:05.843Z,1.40
2022-10-11T16:55:32.472Z,1.65
2022-10-11T16:57:59.039Z,1.52
2022-10-11T17:00:25.683Z,1.90
2022-10-11T17:02:52.339Z,1.70
2022-10-11T17:05:19.320Z,1.33
2022-10-11T17:07:45.907Z,1.75
2022-10-11T17:10:12.498Z,1.42
2022-10-11T17:12:39.054Z,1.50
2022-10-11T17:15:06.790Z,1.60
2022-10-11T17:17:33.453Z,1.55
2022-10-11T17:20:02.254Z,1.40
2022-10-11T17:22:29.033Z,1.60
2022-10-11T17:24:55.598Z,1.60
2022-10-11T17:27:22.304Z,1.70
2022-10-11T17:29:49.272Z,1.50
2022-10-11T17:32:16.005Z,1.98
2022-10-11T17:34:42.518Z,2.15
2022-10-11T17:37:10.059Z,1.73
2022-10-11T17:39:36.842Z,1.58
2022-10-11T17:42:07.317Z,1.50
2022-10-11T17:44:35.359Z,1.73
2022-10-11T17:47:02.820Z,1.75
2022-10-11T17:49:29.569Z,1.63
2022-10-11T17:51:56.670Z,1.80
2022-10-11T17:54:23.251Z,1.40
2022-10-11T17:56:50.308Z,1.85
2022-10-11T17:59:20.983Z,1.90
2022-10-11T18:01:50.246Z,1.67
2022-10-11T18:04:19.196Z,1.70
2022-10-11T18:06:46.880Z,1.98
2022-10-11T18:09:16.627Z,1.75
2022-10-11T18:11:43.303Z,1.60
2022-10-11T18:14:10.157Z,1.55
2022-10-11T18:16:37.778Z,1.83
2022-10-11T18:19:06.937Z,1.40
2022-10-11T18:21:35.006Z,1.85
2022-10-11T18:24:04.164Z,2.63
2022-10-11T18:26:31.251Z,2.50
2022-10-11T18:28:58.730Z,3.35
2022-10-11T18:31:28.582Z,2.72
2022-10-11T18:33:55.528Z,3.03
2022-10-11T18:36:27.199Z,3.28
2022-10-11T18:38:56.690Z,2.80
2022-10-11T18:41:25.108Z,3.60
2022-10-11T18:43:54.312Z,3.70
2022-10-11T18:46:22.220Z,3.97
2022-10-11T18:48:51.537Z,3.50
2022-10-11T18:51:21.522Z,5.22
2022-10-11T18:53:48.930Z,4.90
2022-10-11T18:56:17.796Z,4.65
2022-10-11T18:58:45.221Z,4.07
2022-10-11T19:01:24.049Z,4.13
2022-10-11T19:03:53.938Z,3.42
2022-10-11T19:06:24.888Z,3.50
2022-10-11T19:08:54.861Z,3.20
2022-10-11T19:11:22.819Z,4.05
2022-10-11T19:14:07.087Z,3.53
2022-10-11T19:16:35.822Z,3.20
2022-10-11T19:19:02.344Z,3.70
2022-10-11T19:21:28.926Z,4.53
2022-10-11T19:23:56.283Z,5.45
2022-10-11T19:26:30.027Z,5.00
2022-10-11T19:28:59.243Z,4.82
2022-10-11T19:31:25.969Z,4.95
2022-10-11T19:33:52.742Z,5.10
2022-10-11T19:36:19.835Z,4.95
2022-10-11T19:38:49.060Z,4.97
2022-10-11T19:41:18.658Z,4.75
2022-10-11T19:43:45.565Z,5.30
2022-10-11T19:46:27.372Z,4.65
2022-10-11T19:49:03.888Z,5.30
2022-10-11T19:51:34.741Z,5.15
2022-10-11T19:54:04.371Z,4.75
2022-10-11T19:56:32.784Z,4.72
2022-10-11T19:59:00.029Z,4.15
2022-10-11T20:01:29.697Z,4.30
2022-10-11T20:03:59.484Z,4.28
2022-10-11T20:06:27.868Z,4.60
2022-10-11T20:09:16.619Z,4.65
2022-10-11T20:11:42.430Z,4.13
2022-10-11T20:14:09.420Z,4.00
2022-10-11T20:16:36.004Z,4.63
2022-10-11T20:19:02.740Z,4.57
2022-10-11T20:21:30.474Z,4.10
2022-10-11T20:24:02.292Z,4.95
2022-10-11T20:26:30.022Z,3.90
2022-10-11T20:28:57.427Z,4.05
2022-10-11T20:31:29.829Z,5.13
2022-10-11T20:33:58.535Z,4.10
2022-10-11T20:36:27.974Z,3.97
2022-10-11T20:38:54.535Z,3.83
2022-10-11T20:41:31.358Z,4.45
2022-10-11T20:43:59.514Z,5.07
2022-10-11T20:46:28.307Z,4.78
2022-10-11T20:49:01.860Z,4.65
2022-10-11T20:51:31.023Z,4.78
2022-10-11T20:53:59.309Z,5.25
2022-10-11T20:56:26.682Z,5.75
2022-10-11T20:58:55.430Z,5.45
2022-10-11T21:01:26.168Z,6.40
2022-10-11T21:03:52.909Z,6.47
2022-10-11T21:06:19.454Z,4.80
2022-10-11T21:08:46.035Z,5.68
2022-10-11T21:11:12.566Z,5.57
2022-10-11T21:13:39.100Z,5.50
2022-10-11T21:16:10.551Z,5.88
2022-10-11T21:18:37.430Z,5.45
2022-10-11T21:21:07.859Z,4.80
2022-10-11T21:23:34.629Z,5.63
2022-10-11T21:26:06.705Z,5.60
2022-10-11T21:28:33.934Z,5.30
2022-10-11T21:31:09.287Z,5.38
2022-10-11T21:33:36.583Z,5.18
2022-10-11T21:36:05.469Z,4.32
2022-10-11T21:38:32.399Z,4.80
2022-10-11T21:40:58.944Z,4.95
2022-10-11T21:43:25.479Z,6.28
2022-10-11T21:45:52.110Z,4.90
2022-10-11T21:48:18.631Z,4.80
2022-10-11T21:50:52.755Z,4.38
2022-10-11T21:53:19.253Z,5.13
2022-10-11T21:55:45.742Z,4.72
2022-10-11T21:58:12.385Z,5.40
2022-10-11T22:00:39.195Z,5.78
2022-10-11T22:03:05.706Z,4.57
2022-10-11T22:05:32.302Z,4.88
2022-10-11T22:07:58.858Z,5.35
2022-10-11T22:10:25.423Z,5.25
2022-10-11T22:12:51.941Z,5.15
2022-10-11T22:15:18.443Z,5.05
2022-10-11T22:17:44.952Z,4.70
2022-10-11T22:20:11.540Z,4.72
2022-10-11T22:22:38.328Z,4.57
2022-10-11T22:25:05.543Z,4.53
2022-10-11T22:27:32.176Z,4.95
2022-10-11T22:29:58.716Z,4.45
2022-10-11T22:32:25.258Z,4.60
2022-10-11T22:34:52.017Z,4.97
2022-10-11T22:37:18.558Z,4.53
2022-10-11T22:39:45.061Z,4.95
2022-10-11T22:42:11.646Z,4.80
2022-10-11T22:44:38.143Z,4.90
2022-10-11T22:47:04.713Z,4.78
2022-10-11T22:49:31.402Z,4.28
2022-10-11T22:51:57.865Z,4.55
2022-10-11T22:54:24.439Z,5.18
2022-10-11T22:56:51.046Z,4.32
2022-10-11T22:59:17.594Z,4.85
2022-10-11T23:01:44.091Z,4.45
2022-10-11T23:04:10.667Z,4.82
2022-10-11T23:06:37.273Z,4.40
2022-10-11T23:09:03.898Z,5.03
2022-10-11T23:11:30.710Z,4.13
2022-10-11T23:13:57.266Z,4.78
2022-10-11T23:16:23.754Z,3.97
2022-10-11T23:18:53.259Z,4.68
2022-10-11T23:21:20.100Z,4.32
2022-10-11T23:23:46.679Z,4.65
2022-10-11T23:26:15.629Z,3.60
2022-10-11T23:28:43.103Z,4.03
2022-10-11T23:31:12.822Z,3.75
2022-10-11T23:33:39.612Z,4.13
2022-10-11T23:36:06.821Z,3.78
2022-10-11T23:38:33.333Z,4.00
2022-10-11T23:40:59.937Z,3.90
2022-10-11T23:43:26.432Z,3.70
2022-10-11T23:45:54.891Z,4.00
2022-10-11T23:48:21.622Z,3.50
2022-10-11T23:50:48.228Z,3.50
2022-10-11T23:53:14.760Z,3.83
2022-10-11T23:55:42.398Z,3.50
2022-10-11T23:58:08.956Z,2.92
